Time;durP1;ratioP1;P1;durP2;ratioP2;P2;SDS_P1;SDS_P2;PMS_P1;PMS_P2;Temp;Humidity;BMP_temperature;BMP_pressure;BME280_temperature;BME280_humidity;BME280_pressure;Samples;Min_cycle;Max_cycle;Signal;HPM_P1;HPM_P2
2022/06/27 00:01:03;;;;;;;;;31.33;31.00;;;;;24.35;53.20;101027.30;110283;1264;18879;-49
2022/06/27 00:03:30;;;;;;;;;34.00;33.00;;;;;24.19;53.82;101027.06;110274;1265;18948;-49
2022/06/27 00:05:57;;;;;;;;;33.33;32.67;;;;;24.25;53.75;101028.77;110168;1265;19502;-48
2022/06/27 00:08:24;;;;;;;;;31.00;30.00;;;;;24.19;53.93;101028.13;110171;1268;20265;-48
2022/06/27 00:10:52;;;;;;;;;32.33;31.33;;;;;24.14;54.10;101027.68;110260;1264;18831;-48
2022/06/27 00:13:19;;;;;;;;;28.00;27.33;;;;;24.07;54.33;101026.55;110254;1264;19454;-48
2022/06/27 00:15:46;;;;;;;;;35.50;34.50;;;;;24.10;54.38;101027.96;110230;1264;18701;-49
2022/06/27 00:18:13;;;;;;;;;35.00;33.00;;;;;24.26;54.05;101034.15;110218;1264;18774;-49
2022/06/27 00:20:41;;;;;;;;;32.33;31.00;;;;;23.94;54.68;101032.86;110199;1264;19793;-48
2022/06/27 00:23:08;;;;;;;;;31.00;29.00;;;;;24.05;54.69;101027.81;110252;1264;18788;-48
2022/06/27 00:25:35;;;;;;;;;31.00;30.33;;;;;24.25;54.02;101027.25;110286;1264;19563;-48
2022/06/27 00:28:03;;;;;;;;;33.00;31.33;;;;;24.37;53.82;101030.61;110120;1265;21300;-48
2022/06/27 00:30:30;;;;;;;;;35.33;34.00;;;;;24.41;53.60;101028.73;110176;1265;22399;-49
2022/06/27 00:32:57;;;;;;;;;33.33;32.00;;;;;24.46;53.43;101028.10;110277;1264;19123;-48
2022/06/27 00:35:24;;;;;;;;;36.00;34.00;;;;;24.35;53.43;101025.27;110303;1264;19780;-50
2022/06/27 00:37:52;;;;;;;;;36.00;33.33;;;;;24.36;53.38;101030.31;110316;1264;22851;-48
2022/06/27 00:40:19;;;;;;;;;37.50;36.50;;;;;24.44;53.17;101029.88;110273;1264;19019;-48
2022/06/27 00:42:47;;;;;;;;;35.33;34.00;;;;;24.40;53.18;101031.70;110245;1264;21007;-48
2022/06/27 00:45:14;;;;;;;;;36.33;33.33;;;;;24.16;53.55;101035.45;110252;1264;18709;-48
2022/06/27 00:47:41;;;;;;;;;30.00;29.00;;;;;24.29;53.37;101035.83;110195;1265;18855;-48
2022/06/27 00:50:08;;;;;;;;;31.00;29.33;;;;;24.37;53.20;101034.12;110285;1265;19629;-48
2022/06/27 00:52:36;;;;;;;;;41.00;34.67;;;;;24.44;53.07;101031.71;110296;1264;18785;-50
2022/06/27 00:55:03;;;;;;;;;33.00;30.67;;;;;24.35;53.05;101030.17;110287;1264;18933;-48
2022/06/27 00:57:30;;;;;;;;;32.00;32.00;;;;;24.57;52.67;101031.39;110262;1264;19634;-49
2022/06/27 00:59:57;;;;;;;;;35.50;35.00;;;;;24.21;53.44;101032.40;110246;1264;18886;-49
2022/06/27 01:02:25;;;;;;;;;37.00;34.50;;;;;24.04;53.77;101029.48;110270;1265;18857;-50
2022/06/27 01:04:52;;;;;;;;;33.33;32.67;;;;;23.98;54.09;101027.98;110323;1265;19705;-50
2022/06/27 01:07:19;;;;;;;;;32.00;30.50;;;;;24.09;53.96;101027.23;110280;1264;18958;-51
2022/06/27 01:09:46;;;;;;;;;33.00;31.33;;;;;24.01;53.97;101029.07;110264;1264;19123;-50
2022/06/27 01:12:14;;;;;;;;;35.67;33.00;;;;;24.16;53.79;101022.61;110086;1265;23047;-49
2022/06/27 01:14:41;;;;;;;;;35.33;33.67;;;;;24.37;53.36;101029.77;110125;1264;19627;-49
2022/06/27 01:17:08;;;;;;;;;34.50;32.00;;;;;24.45;53.21;101026.91;110231;1265;19104;-48
2022/06/27 01:19:35;;;;;;;;;36.00;33.00;;;;;24.14;53.70;101025.23;110208;1264;23413;-50
2022/06/27 01:22:03;;;;;;;;;36.00;33.00;;;;;24.06;54.02;101032.81;110280;1264;18761;-51
2022/06/27 01:24:30;;;;;;;;;38.33;35.33;;;;;24.14;53.86;101027.96;110195;1264;18936;-48
2022/06/27 01:26:57;;;;;;;;;33.00;31.00;;;;;23.93;54.44;101029.39;110295;1264;19796;-46
2022/06/27 01:29:24;;;;;;;;;30.67;28.00;;;;;24.01;54.34;101027.68;110266;1265;18726;-49
2022/06/27 01:31:52;;;;;;;;;33.00;31.33;;;;;24.13;54.02;101027.20;110287;1264;18729;-49
2022/06/27 01:34:19;;;;;;;;;35.67;32.67;;;;;23.97;54.32;101029.64;110267;1264;19632;-48
2022/06/27 01:36:46;;;;;;;;;35.33;35.33;;;;;23.78;54.93;101030.92;110237;1264;18908;-48
2022/06/27 01:39:14;;;;;;;;;33.67;32.00;;;;;23.61;55.26;101030.83;110287;1264;19111;-49
2022/06/27 01:41:41;;;;;;;;;33.67;31.67;;;;;23.75;54.96;101031.77;110308;1264;20719;-49
2022/06/27 01:44:08;;;;;;;;;32.00;31.00;;;;;23.77;54.96;101028.81;110258;1264;18748;-51
2022/06/27 01:46:36;;;;;;;;;36.00;32.33;;;;;23.93;54.50;101020.84;110274;1264;22238;-49
2022/06/27 01:49:03;;;;;;;;;33.00;31.33;;;;;24.02;54.39;101019.31;110251;1265;19655;-51
2022/06/27 01:51:30;;;;;;;;;34.00;31.33;;;;;24.00;54.13;101022.65;110260;1265;18973;-47
2022/06/27 01:53:57;;;;;;;;;30.67;30.00;;;;;23.85;54.44;101021.67;110333;1264;19001;-51
2022/06/27 01:56:25;;;;;;;;;34.00;32.00;;;;;23.89;54.67;101017.05;110260;1264;20000;-50
2022/06/27 01:58:57;;;;;;;;;38.50;33.50;;;;;23.97;54.23;101017.88;110288;1265;18673;-56
2022/06/27 02:01:24;;;;;;;;;36.00;34.00;;;;;23.81;54.57;101020.14;110312;1264;18971;-53
2022/06/27 02:03:51;;;;;;;;;33.33;32.33;;;;;23.73;54.66;101022.22;110282;1264;19621;-51
2022/06/27 02:06:19;;;;;;;;;31.00;30.00;;;;;23.58;55.02;101017.98;110274;1264;18897;-49
2022/06/27 02:08:47;;;;;;;;;31.33;29.33;;;;;23.60;55.19;101010.63;110284;1264;18790;-49
2022/06/27 02:11:14;;;;;;;;;34.67;33.33;;;;;23.64;54.95;101009.55;110173;1265;19722;-50
2022/06/27 02:13:41;;;;;;;;;31.67;31.67;;;;;23.61;54.94;101006.81;110233;1264;18845;-49
2022/06/27 02:16:08;;;;;;;;;33.00;30.00;;;;;23.73;54.61;101008.88;110246;1265;21025;-49
2022/06/27 02:18:36;;;;;;;;;34.00;33.00;;;;;23.81;54.52;101007.00;110237;1264;19402;-48
2022/06/27 02:21:03;;;;;;;;;33.00;31.67;;;;;23.95;54.14;101006.98;110317;1264;18883;-49
2022/06/27 02:23:30;;;;;;;;;31.33;27.33;;;;;23.80;54.31;101010.95;110279;1265;18779;-50
2022/06/27 02:25:58;;;;;;;;;32.00;31.33;;;;;23.97;53.93;101004.73;110288;1264;19802;-50
2022/06/27 02:28:25;;;;;;;;;32.67;30.00;;;;;24.17;53.41;101006.52;110255;1265;18703;-50
2022/06/27 02:30:52;;;;;;;;;29.00;28.50;;;;;24.05;53.58;101005.41;110260;1265;20460;-50
2022/06/27 02:33:19;;;;;;;;;31.67;31.00;;;;;24.04;53.50;101005.90;110271;1264;19789;-51
2022/06/27 02:35:47;;;;;;;;;33.00;32.00;;;;;23.85;53.81;101011.00;110237;1264;18971;-49
2022/06/27 02:38:14;;;;;;;;;32.50;30.50;;;;;23.62;54.59;101012.25;110217;1264;18962;-48
2022/06/27 02:40:42;;;;;;;;;32.33;29.67;;;;;23.61;54.80;101012.86;110247;1264;22218;-50
2022/06/27 02:43:09;;;;;;;;;34.00;33.00;;;;;23.73;54.53;101013.43;110179;1265;21327;-52
2022/06/27 02:45:37;;;;;;;;;33.00;31.33;;;;;23.71;54.64;101017.15;110289;1264;18733;-53
2022/06/27 02:48:04;;;;;;;;;31.33;30.00;;;;;23.75;54.66;101017.61;110304;1265;22314;-46
2022/06/27 02:50:31;;;;;;;;;31.00;30.00;;;;;23.63;54.82;101015.77;110280;1265;25791;-45
2022/06/27 02:52:59;;;;;;;;;31.33;30.00;;;;;23.88;54.57;101014.85;110278;1264;19051;-52
2022/06/27 02:55:26;;;;;;;;;33.50;31.50;;;;;23.77;54.57;101020.08;110260;1265;21073;-51
2022/06/27 02:57:53;;;;;;;;;30.00;30.00;;;;;23.44;55.66;101026.24;110227;1265;20130;-50
2022/06/27 03:00:21;;;;;;;;;30.00;29.50;;;;;23.46;55.61;101028.11;110281;1264;20136;-53
2022/06/27 03:02:48;;;;;;;;;31.00;30.00;;;;;23.35;55.86;101032.74;110272;1264;19475;-53
2022/06/27 03:05:15;;;;;;;;;31.00;30.50;;;;;23.33;56.11;101027.89;110274;1265;19687;-48
2022/06/27 03:07:43;;;;;;;;;31.00;31.00;;;;;23.44;55.70;101035.17;110175;1264;20274;-46
2022/06/27 03:10:10;;;;;;;;;30.00;29.67;;;;;23.49;55.70;101036.63;110280;1264;19591;-50
2022/06/27 03:12:37;;;;;;;;;34.00;30.50;;;;;23.41;55.78;101035.96;110274;1264;21548;-48
2022/06/27 03:15:05;;;;;;;;;30.00;28.67;;;;;23.44;55.81;101039.45;110303;1265;19589;-48
2022/06/27 03:17:32;;;;;;;;;29.00;29.00;;;;;23.66;55.28;101045.35;110252;1264;22018;-48
2022/06/27 03:19:59;;;;;;;;;33.33;33.33;;;;;23.49;55.72;101042.27;110257;1264;18848;-51
2022/06/27 03:22:26;;;;;;;;;33.67;32.67;;;;;23.38;55.93;101043.41;110259;1264;18897;-48
2022/06/27 03:24:54;;;;;;;;;32.67;31.00;;;;;23.14;56.43;101046.28;110253;1265;19497;-49
2022/06/27 03:27:21;;;;;;;;;34.33;31.33;;;;;23.11;56.56;101047.09;110276;1264;19156;-51
2022/06/27 03:29:48;;;;;;;;;30.00;28.67;;;;;23.15;56.71;101047.91;110263;1265;21508;-49
2022/06/27 03:32:15;;;;;;;;;31.33;31.00;;;;;23.21;56.43;101047.69;110264;1264;19356;-49
2022/06/27 03:34:42;;;;;;;;;33.00;31.33;;;;;23.06;56.60;101050.29;110259;1264;20558;-51
2022/06/27 03:37:10;;;;;;;;;34.33;32.33;;;;;23.01;56.85;101053.77;110220;1265;18784;-48
2022/06/27 03:39:37;;;;;;;;;34.33;32.00;;;;;23.00;56.87;101051.67;110217;1265;19600;-50
2022/06/27 03:42:04;;;;;;;;;35.67;31.00;;;;;23.10;56.67;101052.88;110302;1265;18716;-49
2022/06/27 03:44:32;;;;;;;;;33.33;31.33;;;;;23.03;56.90;101055.16;110279;1264;18843;-49
2022/06/27 03:46:59;;;;;;;;;32.00;31.67;;;;;23.08;56.79;101059.88;110267;1264;19606;-48
2022/06/27 03:52:11;;;;;;;;;32.00;31.33;;;;;22.95;57.30;101068.02;110292;1265;18853;-49
2022/06/27 03:54:38;;;;;;;;;31.50;27.50;;;;;23.04;57.09;101070.70;110262;1265;22335;-48
2022/06/27 03:57:06;;;;;;;;;34.67;32.67;;;;;23.13;56.91;101068.03;110315;1265;21293;-46
2022/06/27 03:59:33;;;;;;;;;32.00;32.00;;;;;23.31;56.52;101072.88;110248;1265;19015;-48
2022/06/27 04:02:00;;;;;;;;;32.33;32.00;;;;;23.00;57.29;101070.33;110273;1264;19708;-48
2022/06/27 04:04:27;;;;;;;;;31.67;30.67;;;;;22.87;57.62;101072.34;110251;1264;18849;-48
2022/06/27 04:06:54;;;;;;;;;35.67;33.00;;;;;23.15;57.25;101073.79;110236;1264;19060;-48
2022/06/27 04:09:22;;;;;;;;;37.67;36.33;;;;;23.23;56.94;101073.14;110281;1264;20899;-50
2022/06/27 04:11:50;;;;;;;;;36.67;34.33;;;;;23.13;57.19;101075.79;110298;1264;18803;-48
2022/06/27 04:14:17;;;;;;;;;36.33;33.33;;;;;22.98;57.63;101075.95;110248;1264;19259;-48
2022/06/27 04:16:44;;;;;;;;;38.00;36.00;;;;;23.03;57.75;101074.81;110261;1264;19591;-49
2022/06/27 04:19:11;;;;;;;;;35.67;35.33;;;;;23.09;57.62;101078.11;110199;1264;18869;-50
2022/06/27 04:21:39;;;;;;;;;35.00;33.00;;;;;23.16;57.46;101084.07;110241;1265;18930;-48
2022/06/27 04:24:06;;;;;;;;;33.00;32.00;;;;;23.15;57.48;101085.03;110315;1264;19601;-48
2022/06/27 04:26:33;;;;;;;;;34.00;33.00;;;;;23.33;57.35;101083.67;110241;1264;18976;-49
2022/06/27 04:29:00;;;;;;;;;36.00;32.00;;;;;23.54;56.76;101086.30;110250;1264;21385;-50
2022/06/27 04:31:28;;;;;;;;;34.33;33.33;;;;;23.49;56.79;101087.33;110224;1264;19680;-52
2022/06/27 04:33:55;;;;;;;;;29.50;29.50;;;;;23.49;57.06;101090.09;110265;1265;18681;-51
2022/06/27 04:36:23;;;;;;;;;38.00;33.33;;;;;23.70;56.52;101087.70;110249;1264;19126;-53
2022/06/27 04:38:51;;;;;;;;;36.33;35.67;;;;;23.81;56.13;101092.95;110225;1264;19695;-48
2022/06/27 04:41:25;;;;;;;;;31.67;31.67;;;;;24.06;55.57;101095.66;110203;1265;22232;-52
2022/06/27 04:43:53;;;;;;;;;30.33;30.33;;;;;23.96;55.99;101096.30;110131;1264;18859;-54
2022/06/27 04:46:21;;;;;;;;;34.00;33.67;;;;;24.09;55.80;101100.72;110214;1264;22353;-47
2022/06/27 04:48:48;;;;;;;;;33.33;29.33;;;;;24.05;55.73;101104.54;110213;1265;18717;-51
2022/06/27 04:51:16;;;;;;;;;31.67;29.33;;;;;23.97;55.94;101104.60;110298;1265;19110;-49
2022/06/27 04:53:43;;;;;;;;;31.67;30.67;;;;;24.09;55.48;101108.42;110226;1264;19848;-49
2022/06/27 04:56:11;;;;;;;;;31.00;29.50;;;;;24.02;55.65;101107.14;110159;1264;22804;-49
2022/06/27 04:58:39;;;;;;;;;31.67;30.00;;;;;24.13;55.54;101106.97;110082;1264;18933;-51
2022/06/27 05:01:06;;;;;;;;;31.67;29.33;;;;;24.19;55.40;101111.63;109933;1265;21562;-54
2022/06/27 05:03:33;;;;;;;;;33.00;31.50;;;;;24.13;55.52;101108.10;110099;1264;18828;-48
2022/06/27 05:06:00;;;;;;;;;34.00;31.00;;;;;24.25;55.24;101108.30;110276;1264;18837;-50
2022/06/27 05:08:28;;;;;;;;;33.00;30.00;;;;;24.36;54.93;101116.20;110159;1264;21073;-52
2022/06/27 05:10:55;;;;;;;;;29.33;28.67;;;;;24.35;54.96;101116.06;110218;1264;18865;-52
2022/06/27 05:13:22;;;;;;;;;33.33;30.33;;;;;24.36;54.92;101116.46;110170;1265;18922;-54
2022/06/27 05:15:50;;;;;;;;;31.33;27.33;;;;;24.39;55.01;101117.38;110254;1265;19476;-51
2022/06/27 05:18:17;;;;;;;;;27.00;27.00;;;;;24.41;54.93;101118.04;110293;1264;18944;-53
2022/06/27 05:20:44;;;;;;;;;27.33;27.00;;;;;24.57;54.59;101119.25;110264;1264;18965;-52
2022/06/27 05:23:11;;;;;;;;;29.00;29.00;;;;;24.58;54.54;101116.53;110247;1264;19499;-50
2022/06/27 05:25:38;;;;;;;;;31.67;30.00;;;;;24.68;54.57;101120.77;110152;1265;21396;-50
2022/06/27 05:28:06;;;;;;;;;29.67;28.67;;;;;24.75;54.36;101123.20;110281;1264;18822;-51
2022/06/27 05:30:34;;;;;;;;;35.67;30.67;;;;;24.83;54.04;101125.33;110287;1265;19970;-49
2022/06/27 05:33:01;;;;;;;;;31.67;30.33;;;;;25.01;53.60;101125.34;110282;1265;18753;-53
2022/06/27 05:35:29;;;;;;;;;36.33;33.67;;;;;25.18;53.41;101124.13;110229;1264;22175;-55
2022/06/27 05:37:56;;;;;;;;;31.00;29.33;;;;;25.28;53.08;101127.93;110231;1265;22183;-52
2022/06/27 05:40:24;;;;;;;;;32.67;31.33;;;;;25.16;53.23;101128.25;110273;1264;18793;-51
2022/06/27 05:42:53;;;;;;;;;32.67;30.00;;;;;25.07;53.75;101128.25;110212;1265;18915;-52
2022/06/27 05:45:21;;;;;;;;;28.67;28.00;;;;;25.21;53.61;101127.00;110268;1265;19664;-54
2022/06/27 05:47:48;;;;;;;;;28.00;27.33;;;;;25.30;53.40;101124.25;110252;1264;18803;-55
2022/06/27 05:50:16;;;;;;;;;33.00;30.50;;;;;25.20;53.61;101128.02;110240;1265;18801;-53
2022/06/27 05:52:43;;;;;;;;;30.33;28.33;;;;;25.18;53.66;101127.81;110228;1264;19790;-51
2022/06/27 05:55:11;;;;;;;;;31.50;31.50;;;;;25.35;53.66;101128.21;110243;1264;18690;-50
2022/06/27 05:57:39;;;;;;;;;32.33;29.33;;;;;25.48;53.56;101128.45;110266;1264;18861;-52
2022/06/27 06:00:08;;;;;;;;;31.33;28.33;;;;;25.57;53.36;101130.92;110309;1265;19408;-52
2022/06/27 06:02:36;;;;;;;;;28.00;27.00;;;;;25.58;53.31;101132.70;110256;1264;18731;-54
2022/06/27 06:05:04;;;;;;;;;30.33;27.67;;;;;25.77;53.20;101130.59;110267;1264;18948;-54
2022/06/27 06:07:31;;;;;;;;;30.00;27.00;;;;;25.82;52.84;101130.41;110137;1265;22210;-54
2022/06/27 06:09:59;;;;;;;;;29.00;27.50;;;;;25.75;52.93;101132.33;110279;1264;18794;-53
2022/06/27 06:12:26;;;;;;;;;29.00;28.00;;;;;25.80;52.90;101129.02;110309;1264;20853;-49
2022/06/27 06:14:55;;;;;;;;;33.33;30.67;;;;;25.91;52.59;101132.79;110347;1265;19672;-50
2022/06/27 06:17:24;;;;;;;;;29.00;28.50;;;;;26.01;52.40;101132.14;110258;1264;18997;-48
2022/06/27 06:19:51;;;;;;;;;28.33;27.67;;;;;26.14;52.15;101133.14;110284;1264;18827;-52
2022/06/27 06:22:18;;;;;;;;;33.00;29.00;;;;;26.17;51.87;101132.73;110162;1265;19622;-56
2022/06/27 06:24:47;;;;;;;;;29.67;27.00;;;;;26.30;51.83;101130.69;110208;1265;18698;-52
2022/06/27 06:27:15;;;;;;;;;29.00;28.00;;;;;26.45;51.34;101132.63;110136;1265;18678;-52
2022/06/27 06:29:42;;;;;;;;;28.00;28.00;;;;;26.35;51.51;101131.64;110141;1264;19777;-53
2022/06/27 06:32:09;;;;;;;;;26.00;25.00;;;;;26.30;51.55;101132.24;110249;1264;19010;-52
2022/06/27 06:34:37;;;;;;;;;25.00;24.00;;;;;26.35;51.23;101135.06;110275;1265;19261;-51
2022/06/27 06:37:05;;;;;;;;;29.33;25.33;;;;;26.32;51.41;101131.84;110247;1264;19498;-52
2022/06/27 06:39:32;;;;;;;;;26.00;24.67;;;;;26.42;51.22;101125.98;110261;1264;21823;-54
2022/06/27 06:42:00;;;;;;;;;28.67;25.00;;;;;26.52;50.94;101123.73;110254;1264;18905;-55
2022/06/27 06:44:27;;;;;;;;;25.33;24.67;;;;;26.60;51.07;101126.13;110308;1264;19575;-51
2022/06/27 06:46:55;;;;;;;;;27.00;26.00;;;;;26.65;50.79;101119.64;110266;1264;18787;-54
2022/06/27 06:49:22;;;;;;;;;24.67;24.00;;;;;26.73;50.52;101114.63;110277;1264;22664;-52
2022/06/27 06:51:50;;;;;;;;;25.50;24.00;;;;;26.81;50.76;101111.77;110273;1265;20946;-51
2022/06/27 06:54:20;;;;;;;;;26.00;26.00;;;;;26.82;50.89;101112.70;110183;1265;19024;-54
2022/06/27 06:56:49;;;;;;;;;25.33;24.67;;;;;26.89;50.86;101112.80;110232;1264;19140;-54
2022/06/27 06:59:17;;;;;;;;;26.00;25.00;;;;;26.82;50.96;101111.39;110252;1265;19580;-48
2022/06/27 07:01:46;;;;;;;;;29.50;28.00;;;;;26.81;50.85;101117.79;110150;1265;18717;-54
2022/06/27 07:04:15;;;;;;;;;25.67;25.00;;;;;26.76;51.11;101112.36;109970;1265;339782;-49
2022/06/27 07:06:42;;;;;;;;;26.00;24.00;;;;;26.74;51.12;101106.77;110267;1265;19575;-53
2022/06/27 07:09:09;;;;;;;;;27.00;26.00;;;;;26.79;50.93;101101.73;110306;1264;18714;-55
2022/06/27 07:11:39;;;;;;;;;25.67;25.67;;;;;26.79;50.78;101105.38;110238;1265;19024;-54
2022/06/27 07:14:06;;;;;;;;;25.67;25.67;;;;;26.88;50.60;101102.52;110242;1264;19520;-52
2022/06/27 07:16:33;;;;;;;;;26.00;25.00;;;;;26.86;50.44;101101.83;110188;1265;21147;-54
2022/06/27 07:19:02;;;;;;;;;29.50;27.00;;;;;26.96;50.49;101102.52;110175;1264;23609;-55
2022/06/27 07:21:31;;;;;;;;;25.67;24.67;;;;;26.98;50.36;101101.77;110226;1264;19631;-52
2022/06/27 07:24:00;;;;;;;;;26.33;25.00;;;;;27.01;50.03;101103.13;110264;1265;18812;-54
2022/06/27 07:26:28;;;;;;;;;21.33;21.33;;;;;27.05;49.88;101102.84;110209;1265;18854;-51
2022/06/27 07:28:56;;;;;;;;;24.50;23.50;;;;;27.08;49.51;101100.23;110188;1264;19457;-54
2022/06/27 07:31:24;;;;;;;;;23.67;22.00;;;;;27.10;49.49;101101.73;110222;1265;19038;-52
2022/06/27 07:33:53;;;;;;;;;27.67;24.00;;;;;27.20;49.38;101104.23;110230;1265;20032;-53
2022/06/27 07:36:22;;;;;;;;;23.67;21.00;;;;;27.24;49.19;101098.01;110378;1264;19525;-52
2022/06/27 07:38:49;;;;;;;;;22.00;22.00;;;;;27.22;49.13;101097.84;110225;1265;18868;-52
2022/06/27 07:41:19;;;;;;;;;22.33;21.00;;;;;27.21;48.88;101086.95;110277;1265;18679;-55
2022/06/27 07:43:47;;;;;;;;;21.33;20.33;;;;;27.33;48.71;101083.14;110236;1264;19673;-51
2022/06/27 07:46:15;;;;;;;;;21.00;20.67;;;;;27.46;48.77;101087.53;110230;1264;19033;-51
2022/06/27 07:48:42;;;;;;;;;24.33;23.00;;;;;27.50;48.67;101086.14;110252;1264;18964;-53
2022/06/27 07:51:09;;;;;;;;;23.33;19.67;;;;;27.47;48.25;101091.35;110290;1265;22706;-55
2022/06/27 07:53:37;;;;;;;;;21.33;20.00;;;;;27.49;48.07;101093.38;110216;1265;18856;-52
2022/06/27 07:56:06;;;;;;;;;20.00;19.00;;;;;27.44;47.43;101085.77;110209;1264;18886;-55
2022/06/27 07:58:34;;;;;;;;;19.00;18.33;;;;;27.50;47.55;101084.44;110230;1264;19512;-52
2022/06/27 08:01:01;;;;;;;;;23.00;19.00;;;;;27.61;47.07;101085.62;110222;1264;18985;-56
2022/06/27 08:03:40;;;;;;;;;21.67;20.67;;;;;27.64;46.42;101092.18;110224;1265;18938;-52
2022/06/27 08:06:08;;;;;;;;;19.50;19.50;;;;;27.63;45.53;101090.35;110232;1264;19826;-53
2022/06/27 08:08:36;;;;;;;;;20.00;19.00;;;;;27.64;45.20;101086.75;110253;1263;19482;-52
2022/06/27 08:11:03;;;;;;;;;20.00;20.00;;;;;27.65;45.15;101090.73;110229;1264;19601;-51
2022/06/27 08:13:31;;;;;;;;;20.00;20.00;;;;;27.68;45.04;101089.27;110221;1265;19495;-52
2022/06/27 08:15:58;;;;;;;;;20.50;18.00;;;;;27.70;44.98;101090.67;110250;1264;20240;-57
2022/06/27 08:18:28;;;;;;;;;18.67;16.67;;;;;27.77;44.19;101084.56;110276;1264;18902;-51
2022/06/27 08:20:55;;;;;;;;;15.00;15.00;;;;;27.82;43.57;101086.71;110223;1264;19735;-55
2022/06/27 08:23:23;;;;;;;;;19.33;17.00;;;;;27.83;43.32;101096.70;110122;1264;18840;-53
2022/06/27 08:25:50;;;;;;;;;16.67;16.33;;;;;27.86;42.66;101086.73;110048;1264;18762;-51
2022/06/27 08:28:19;;;;;;;;;16.67;16.67;;;;;27.85;42.37;101094.66;110065;1265;19544;-53
2022/06/27 08:30:47;;;;;;;;;16.33;16.33;;;;;27.93;42.00;101090.70;110206;1264;18791;-50
2022/06/27 08:33:14;;;;;;;;;15.33;15.00;;;;;28.00;42.24;101094.23;110183;1265;19046;-53
2022/06/27 08:35:44;;;;;;;;;17.00;16.00;;;;;28.03;42.39;101095.54;110195;1264;19733;-52
2022/06/27 08:38:11;;;;;;;;;15.00;15.00;;;;;28.03;42.38;101092.58;110252;1265;18728;-52
2022/06/27 08:40:38;;;;;;;;;18.00;16.00;;;;;28.06;41.93;101097.74;110260;1264;18794;-52
2022/06/27 08:43:06;;;;;;;;;16.00;16.00;;;;;28.01;41.97;101089.54;110236;1264;19624;-53
2022/06/27 08:45:34;;;;;;;;;17.00;16.33;;;;;28.07;42.23;101088.54;110249;1264;18708;-51
2022/06/27 08:48:07;;;;;;;;;17.00;15.33;;;;;28.13;42.19;101086.23;110269;1264;18883;-53
2022/06/27 08:50:34;;;;;;;;;15.00;15.00;;;;;28.13;42.37;101087.33;110249;1264;19612;-52
2022/06/27 08:53:02;;;;;;;;;15.33;15.00;;;;;28.23;42.34;101077.15;110262;1264;18779;-53
2022/06/27 08:55:30;;;;;;;;;16.00;15.00;;;;;28.18;42.26;101083.61;110283;1264;18694;-52
2022/06/27 08:57:58;;;;;;;;;16.00;14.00;;;;;28.20;41.73;101075.73;110227;1264;19498;-54
2022/06/27 09:00:26;;;;;;;;;14.33;14.00;;;;;28.19;41.83;101068.83;110290;1264;19023;-53
2022/06/27 09:02:53;;;;;;;;;17.00;16.00;;;;;28.32;41.81;101084.34;110208;1264;19057;-51
2022/06/27 09:05:21;;;;;;;;;17.00;16.00;;;;;28.31;42.00;101070.39;110161;1264;22274;-55
2022/06/27 09:07:48;;;;;;;;;12.00;12.00;;;;;28.39;41.96;101067.09;110147;1264;18707;-51
2022/06/27 09:10:16;;;;;;;;;16.00;16.00;;;;;28.33;41.50;101062.28;110138;1264;20126;-51
2022/06/27 09:12:43;;;;;;;;;15.33;15.33;;;;;28.34;40.64;101062.55;110266;1264;19567;-51
2022/06/27 09:15:11;;;;;;;;;16.00;15.00;;;;;28.33;40.67;101063.55;110313;1264;20542;-53
2022/06/27 09:17:38;;;;;;;;;16.00;16.00;;;;;28.30;40.93;101058.26;110281;1264;23359;-52
2022/06/27 09:20:06;;;;;;;;;16.00;15.00;;;;;28.22;41.24;101056.73;110257;1264;19513;-53
2022/06/27 09:22:33;;;;;;;;;17.33;16.33;;;;;28.21;41.59;101055.87;110262;1264;22294;-51
2022/06/27 09:25:01;;;;;;;;;16.00;16.00;;;;;28.23;41.55;101055.77;110218;1264;18824;-55
2022/06/27 09:27:28;;;;;;;;;17.67;15.33;;;;;28.22;41.47;101052.77;110195;1264;22166;-54
2022/06/27 09:29:57;;;;;;;;;16.00;16.00;;;;;28.33;40.90;101051.55;110302;1265;18750;-50
2022/06/27 09:32:24;;;;;;;;;14.33;14.00;;;;;28.37;40.52;101052.86;110259;1264;19980;-53
2022/06/27 09:34:52;;;;;;;;;14.00;14.00;;;;;28.35;40.13;101050.20;110271;1264;19627;-52
2022/06/27 09:37:19;;;;;;;;;16.00;15.00;;;;;28.35;39.81;101053.50;110262;1265;18746;-52
2022/06/27 09:39:48;;;;;;;;;14.67;13.67;;;;;28.40;39.74;101052.96;110259;1264;18787;-51
2022/06/27 09:42:15;;;;;;;;;15.33;14.67;;;;;28.41;39.86;101045.66;110293;1265;19365;-54
2022/06/27 09:44:42;;;;;;;;;14.33;14.33;;;;;28.39;39.80;101037.31;110237;1264;18754;-52
2022/06/27 09:47:10;;;;;;;;;18.00;16.50;;;;;28.44;39.73;101035.98;110179;1264;18877;-47
2022/06/27 09:49:38;;;;;;;;;15.33;15.33;;;;;28.51;39.75;101028.73;110186;1265;19750;-49
2022/06/27 09:52:05;;;;;;;;;17.00;16.00;;;;;28.46;40.04;101032.95;110231;1264;20707;-52
2022/06/27 09:54:32;;;;;;;;;18.00;16.00;;;;;28.43;40.47;101033.19;110168;1264;18844;-51
2022/06/27 09:56:59;;;;;;;;;17.00;16.00;;;;;28.45;40.45;101035.52;110275;1264;19624;-50
2022/06/27 09:59:27;;;;;;;;;16.33;15.00;;;;;28.45;40.39;101045.48;110244;1264;18772;-50
2022/06/27 10:01:55;;;;;;;;;19.50;18.00;;;;;28.54;39.93;101043.59;110227;1264;18825;-52
2022/06/27 10:04:24;;;;;;;;;16.00;15.33;;;;;28.45;40.06;101025.58;110261;1264;19543;-51
2022/06/27 10:06:51;;;;;;;;;15.67;15.00;;;;;28.38;40.62;101027.14;110228;1264;18684;-52
2022/06/27 10:09:20;;;;;;;;;15.67;15.67;;;;;28.40;41.16;101027.25;110266;1264;18839;-53
2022/06/27 10:11:48;;;;;;;;;16.00;16.00;;;;;28.46;41.11;101027.45;110270;1264;19510;-55
2022/06/27 10:14:15;;;;;;;;;18.00;17.00;;;;;28.62;40.83;101029.71;110229;1265;18897;-51
2022/06/27 10:16:42;;;;;;;;;14.50;14.50;;;;;28.80;40.06;101024.36;110231;1264;18946;-51
2022/06/27 10:19:09;;;;;;;;;16.00;15.00;;;;;28.69;40.28;101017.52;110258;1264;22299;-50
2022/06/27 10:21:37;;;;;;;;;16.50;15.00;;;;;28.80;40.50;101010.79;110263;1264;18908;-51
2022/06/27 10:24:04;;;;;;;;;15.00;15.00;;;;;28.80;40.39;101011.08;110298;1264;18891;-51
2022/06/27 10:26:31;;;;;;;;;15.33;15.33;;;;;28.77;40.09;101019.66;110261;1264;19692;-48
2022/06/27 10:28:58;;;;;;;;;15.00;14.00;;;;;28.90;39.38;101020.36;110193;1264;18743;-49
2022/06/27 10:31:26;;;;;;;;;16.00;16.00;;;;;28.91;39.40;101012.54;110259;1264;22734;-50
2022/06/27 10:33:53;;;;;;;;;16.67;15.67;;;;;29.02;39.37;101011.48;110263;1264;19666;-51
2022/06/27 10:36:21;;;;;;;;;16.67;16.00;;;;;28.98;39.13;101008.15;110306;1265;18783;-50
2022/06/27 10:38:49;;;;;;;;;19.00;16.67;;;;;28.94;39.07;101008.85;110245;1265;18795;-51
2022/06/27 10:41:16;;;;;;;;;16.50;16.00;;;;;29.10;38.60;101010.54;110264;1264;19459;-51
2022/06/27 10:43:43;;;;;;;;;15.00;15.00;;;;;29.20;38.50;101005.23;110247;1264;19157;-53
2022/06/27 10:46:10;;;;;;;;;17.00;17.00;;;;;29.18;38.83;101002.79;110270;1264;18900;-51
2022/06/27 10:48:38;;;;;;;;;15.67;15.67;;;;;29.25;38.82;101006.29;110252;1264;19568;-52
2022/06/27 10:51:05;;;;;;;;;16.00;15.00;;;;;29.15;38.63;100994.98;110269;1265;18797;-50
2022/06/27 10:53:32;;;;;;;;;18.67;17.67;;;;;29.08;38.83;100993.25;110237;1264;18820;-52
2022/06/27 10:55:59;;;;;;;;;16.00;16.00;;;;;29.18;39.01;100995.74;110259;1264;19468;-51
2022/06/27 10:58:27;;;;;;;;;19.50;18.00;;;;;29.21;39.02;100989.15;110230;1264;18882;-51
2022/06/27 11:00:54;;;;;;;;;17.67;17.67;;;;;29.19;39.27;100993.19;110217;1264;18970;-50
2022/06/27 11:03:22;;;;;;;;;17.00;17.00;;;;;29.19;39.19;100991.27;110302;1264;19806;-48
2022/06/27 11:05:50;;;;;;;;;16.00;15.00;;;;;29.08;39.34;100987.35;110259;1264;19114;-53